KJCT/JCT METAR and TAF weather

Enter ICAO airport designator
Station Type Date Time Source
KJCT METAR 2020/06/02 16:51 UTC NOAA

KJCT 021651Z AUTO 13008KT 10SM SCT028 OVC036 25/19 A3012 RMK AO2 SLP166 T02500194


Station Type Date Time Source
KJCT Decoded METAR 2020/06/02 16:51 UTC NOAA

KIMBLE COUNTY AIRPORT, TX, United States (KJCT) 30-31N 099-46W 523M
Jun 02, 2020 - 12:51 PM EDT / 2020.06.02 1651 UTC
Wind: from the SE (130 degrees) at 9 MPH (8 KT):0
Visibility: 10 mile(s):0
Sky conditions: overcast
Temperature: 77.0 F (25.0 C)
Dew Point: 66.9 F (19.4 C)
Relative Humidity: 71%
Pressure (altimeter): 30.12 in. Hg (1019 hPa)
ob: KJCT 021651Z AUTO 13008KT 10SM SCT028 OVC036 25/19 A3012 RMK AO2 SLP166 T02500194
cycle: 17

Station Type Date Time Source
KJCT TAF 2020/06/02 12:22 UTC NOAA

TAF KJCT 021120Z 0212/0312 VRB02KT 6SM BR BKN017
FM021500 15007KT P6SM BKN025
FM021800 15006KT P6SM BKN050

Example: see airport list